Graff, Missouri
Current Conditions -  °F | °C
As of 12:58 AM on Friday 31 Oct 2014 (Local Time) from KTBN Reporting Station
Clear Clear  
Wind Chill: 44°   Ceiling: Unl
Heat Index: 46°   Visibility: 10mi
Dew Point: 45°   Wind: 5mph
Humidity: 96%   Direction: 310°NW
Pressure: 30.08"   Gusts: NA
Location:  37.32°N, 92.28°W
Report Text: KTBN 310558Z AUTO 31004KT 10SM CLR 08/07 A3008 RMK AO2 SLP190 T00800074 10099 20054 401470027 52012
Loading
Personal Weather Stations






























Interactive Weather Map
Tropical Storm Tracking
New forecast layout! Learn more

10-Day Weather Forecast

Advertisements
Track Severe Weather on mobile